North La Junta, Colorado
Current Conditions -  °F | °C
As of 3:53 PM on Friday 28 Nov 2014 (Local Time) from KLHX Reporting Station
Clear Clear  
Wind Chill: 64°   Ceiling: Unl
Heat Index: 64°   Visibility: 10mi
Dew Point: 17°   Wind: 12mph
Humidity: 16%   Direction: 220°SW
Pressure: 29.81"   Gusts: NA
Location:  37.8368°N, 103.544°W
Report Text: KLHX 282253Z AUTO 22010KT 10SM CLR 18/M08 A2981 RMK AO2 SLP070 T01781083
Loading
Personal Weather Stations






























Interactive Weather Map New forecast layout! Learn more

10-Day Weather Forecast

Advertisements
Track Severe Weather on mobile